createdAt,value
2023-03-19T00:00:02.796Z,100.0
2023-03-19T00:15:03.362Z,100.0
2023-03-19T00:30:02.676Z,100.0
2023-03-19T00:45:03.320Z,100.0
2023-03-19T01:00:02.544Z,100.0
2023-03-19T01:15:02.981Z,100.0
2023-03-19T01:30:02.445Z,100.0
2023-03-19T01:45:02.906Z,100.0
2023-03-19T02:00:02.364Z,100.0
2023-03-19T02:15:02.756Z,100.0
2023-03-19T02:30:03.155Z,100.0
2023-03-19T02:45:02.641Z,100.0
2023-03-19T03:00:03.088Z,100.0
2023-03-19T03:15:02.494Z,100.0
2023-03-19T03:30:02.970Z,100.0
2023-03-19T03:45:02.385Z,100.0
2023-03-19T04:00:02.810Z,100.0
2023-03-19T04:15:03.411Z,100.0
2023-03-19T04:30:02.694Z,100.0
2023-03-19T04:45:03.158Z,100.0
2023-03-19T05:00:02.573Z,100.0
2023-03-19T05:15:03.036Z,100.0
2023-03-19T05:30:02.460Z,100.0
2023-03-19T05:45:02.880Z,100.0
2023-03-19T06:00:02.414Z,100.0
2023-03-19T06:15:02.772Z,100.0
2023-03-19T06:30:02.494Z,100.0
2023-03-19T06:45:02.724Z,100.0
2023-03-19T07:00:03.098Z,100.0
2023-03-19T07:15:02.530Z,100.0
2023-03-19T07:30:02.973Z,100.0
2023-03-19T07:45:02.437Z,100.0
2023-03-19T08:00:02.871Z,100.0
2023-03-19T08:15:02.435Z,100.0
2023-03-19T08:30:02.770Z,100.0
2023-03-19T08:45:03.410Z,100.0
2023-03-19T09:00:02.658Z,99.7
2023-03-19T09:15:03.090Z,99.4
2023-03-19T09:30:02.532Z,99.2
2023-03-19T09:45:02.962Z,99.8
2023-03-19T10:00:02.472Z,99.9
2023-03-19T10:15:02.827Z,100.0
2023-03-19T10:30:02.483Z,99.6
2023-03-19T10:45:02.746Z,99.0
2023-03-19T11:00:03.179Z,99.8
2023-03-19T11:15:02.612Z,99.5
2023-03-19T11:30:03.072Z,98.6
2023-03-19T11:45:02.497Z,97.5
2023-03-19T12:00:02.889Z,95.6
2023-03-19T12:15:02.512Z,90.2
2023-03-19T12:30:02.824Z,84.2
2023-03-19T12:45:02.426Z,79.7
2023-03-19T13:00:02.681Z,68.5
2023-03-19T13:15:03.123Z,68.6
2023-03-19T13:30:02.586Z,68.4
2023-03-19T13:45:04.067Z,68.3
2023-03-19T14:00:02.521Z,70.0
2023-03-19T14:15:02.866Z,71.2
2023-03-19T14:30:02.512Z,71.4
2023-03-19T14:45:02.749Z,71.3
2023-03-19T15:00:03.212Z,69.9
2023-03-19T15:15:02.626Z,68.7
2023-03-19T15:30:13.530Z,64.2
2023-03-19T15:45:02.532Z,65.6
2023-03-19T16:00:03.024Z,63.6
2023-03-19T16:15:02.540Z,64.9
2023-03-19T16:30:02.919Z,67.1
2023-03-19T16:45:02.228Z,68.1
2023-03-19T17:00:02.686Z,69.2
2023-03-19T17:15:03.097Z,71.1
2023-03-19T17:30:02.528Z,72.1
2023-03-19T17:45:02.975Z,73.7
2023-03-19T18:00:02.565Z,74.2
2023-03-19T18:15:02.859Z,75.0
2023-03-19T18:30:02.478Z,76.2
2023-03-19T18:45:02.738Z,78.1
2023-03-19T19:00:03.209Z,80.0
2023-03-19T19:15:02.667Z,87.4
2023-03-19T19:30:03.062Z,91.2
2023-03-19T19:45:02.579Z,91.4
2023-03-19T20:00:02.948Z,91.5
2023-03-19T20:15:02.582Z,91.3
2023-03-19T20:30:02.809Z,91.4
2023-03-19T20:45:03.273Z,91.2
2023-03-19T21:00:02.699Z,90.7
2023-03-19T21:15:03.136Z,90.7
2023-03-19T21:30:02.604Z,90.7
2023-03-19T21:45:02.983Z,90.2
2023-03-19T22:00:02.607Z,90.2
2023-03-19T22:15:02.870Z,90.4
2023-03-19T22:30:02.314Z,90.3
2023-03-19T22:45:02.751Z,90.3
2023-03-19T23:00:03.177Z,90.2
2023-03-19T23:15:02.626Z,90.3
2023-03-19T23:30:03.059Z,90.5
2023-03-19T23:45:02.612Z,90.7
